sensor_id;sensor_type;location;lat;lon;timestamp;P1;durP1;ratioP1;P2;durP2;ratioP2
19521;SDS011;9905;52.126;5.596;2024-01-10T00:00:29;3.80;;;3.50;;
19521;SDS011;9905;52.126;5.596;2024-01-10T00:02:56;3.87;;;3.73;;
19521;SDS011;9905;52.126;5.596;2024-01-10T00:05:22;4.43;;;4.10;;
19521;SDS011;9905;52.126;5.596;2024-01-10T00:07:49;3.93;;;3.73;;
19521;SDS011;9905;52.126;5.596;2024-01-10T00:10:16;4.07;;;3.77;;
19521;SDS011;9905;52.126;5.596;2024-01-10T00:12:43;3.70;;;3.50;;
19521;SDS011;9905;52.126;5.596;2024-01-10T00:15:11;3.77;;;3.57;;
19521;SDS011;9905;52.126;5.596;2024-01-10T00:17:38;3.97;;;3.77;;
19521;SDS011;9905;52.126;5.596;2024-01-10T00:20:06;4.10;;;3.90;;
19521;SDS011;9905;52.126;5.596;2024-01-10T00:22:33;3.97;;;3.50;;
19521;SDS011;9905;52.126;5.596;2024-01-10T00:25:00;4.77;;;4.50;;
19521;SDS011;9905;52.126;5.596;2024-01-10T00:27:27;4.67;;;4.30;;
19521;SDS011;9905;52.126;5.596;2024-01-10T00:29:54;3.93;;;3.67;;
19521;SDS011;9905;52.126;5.596;2024-01-10T00:32:23;4.27;;;3.97;;
19521;SDS011;9905;52.126;5.596;2024-01-10T00:34:49;4.33;;;4.10;;
19521;SDS011;9905;52.126;5.596;2024-01-10T00:37:16;4.07;;;3.87;;
19521;SDS011;9905;52.126;5.596;2024-01-10T00:39:43;4.30;;;4.10;;
19521;SDS011;9905;52.126;5.596;2024-01-10T00:42:10;4.07;;;3.70;;
19521;SDS011;9905;52.126;5.596;2024-01-10T00:44:36;4.70;;;4.40;;
19521;SDS011;9905;52.126;5.596;2024-01-10T00:47:04;4.27;;;4.07;;
19521;SDS011;9905;52.126;5.596;2024-01-10T00:49:32;4.07;;;3.87;;
19521;SDS011;9905;52.126;5.596;2024-01-10T00:51:59;4.70;;;4.40;;
19521;SDS011;9905;52.126;5.596;2024-01-10T00:54:25;4.23;;;4.03;;
19521;SDS011;9905;52.126;5.596;2024-01-10T00:56:52;4.00;;;3.80;;
19521;SDS011;9905;52.126;5.596;2024-01-10T00:59:19;4.10;;;3.90;;
19521;SDS011;9905;52.126;5.596;2024-01-10T01:01:46;3.70;;;3.50;;
19521;SDS011;9905;52.126;5.596;2024-01-10T01:04:12;4.73;;;4.53;;
19521;SDS011;9905;52.126;5.596;2024-01-10T01:06:40;4.40;;;4.13;;
19521;SDS011;9905;52.126;5.596;2024-01-10T01:09:07;4.67;;;4.47;;
19521;SDS011;9905;52.126;5.596;2024-01-10T01:11:34;3.93;;;3.63;;
19521;SDS011;9905;52.126;5.596;2024-01-10T01:14:01;3.97;;;3.63;;
19521;SDS011;9905;52.126;5.596;2024-01-10T01:16:28;3.73;;;3.53;;
19521;SDS011;9905;52.126;5.596;2024-01-10T01:18:54;4.37;;;4.10;;
19521;SDS011;9905;52.126;5.596;2024-01-10T01:21:21;4.30;;;4.00;;
19521;SDS011;9905;52.126;5.596;2024-01-10T01:23:49;4.13;;;3.83;;
19521;SDS011;9905;52.126;5.596;2024-01-10T01:26:16;4.70;;;4.43;;
19521;SDS011;9905;52.126;5.596;2024-01-10T01:28:43;4.13;;;3.93;;
19521;SDS011;9905;52.126;5.596;2024-01-10T01:31:09;4.47;;;4.17;;
19521;SDS011;9905;52.126;5.596;2024-01-10T01:33:36;3.90;;;3.70;;
19521;SDS011;9905;52.126;5.596;2024-01-10T01:36:04;4.30;;;4.03;;
19521;SDS011;9905;52.126;5.596;2024-01-10T01:38:31;4.70;;;4.30;;
19521;SDS011;9905;52.126;5.596;2024-01-10T01:40:59;4.47;;;4.17;;
19521;SDS011;9905;52.126;5.596;2024-01-10T01:43:26;4.30;;;4.10;;
19521;SDS011;9905;52.126;5.596;2024-01-10T01:45:53;4.27;;;4.07;;
19521;SDS011;9905;52.126;5.596;2024-01-10T01:48:21;4.27;;;3.97;;
19521;SDS011;9905;52.126;5.596;2024-01-10T01:50:51;4.23;;;3.90;;
19521;SDS011;9905;52.126;5.596;2024-01-10T01:53:20;4.53;;;4.33;;
19521;SDS011;9905;52.126;5.596;2024-01-10T01:55:48;4.77;;;4.57;;
19521;SDS011;9905;52.126;5.596;2024-01-10T01:58:17;4.43;;;4.10;;
19521;SDS011;9905;52.126;5.596;2024-01-10T02:00:44;4.37;;;4.17;;
19521;SDS011;9905;52.126;5.596;2024-01-10T02:03:11;4.87;;;4.47;;
19521;SDS011;9905;52.126;5.596;2024-01-10T02:05:38;4.70;;;4.40;;
19521;SDS011;9905;52.126;5.596;2024-01-10T02:08:05;5.17;;;4.77;;
19521;SDS011;9905;52.126;5.596;2024-01-10T02:10:32;4.43;;;4.23;;
19521;SDS011;9905;52.126;5.596;2024-01-10T02:12:59;4.77;;;4.37;;
19521;SDS011;9905;52.126;5.596;2024-01-10T02:15:27;5.00;;;4.73;;
19521;SDS011;9905;52.126;5.596;2024-01-10T02:17:54;4.67;;;4.43;;
19521;SDS011;9905;52.126;5.596;2024-01-10T02:20:21;4.40;;;4.17;;
19521;SDS011;9905;52.126;5.596;2024-01-10T02:22:48;4.40;;;4.10;;
19521;SDS011;9905;52.126;5.596;2024-01-10T02:25:17;4.73;;;4.43;;
19521;SDS011;9905;52.126;5.596;2024-01-10T02:27:44;4.60;;;4.33;;
19521;SDS011;9905;52.126;5.596;2024-01-10T02:30:11;4.43;;;4.13;;
19521;SDS011;9905;52.126;5.596;2024-01-10T02:32:38;4.50;;;4.20;;
19521;SDS011;9905;52.126;5.596;2024-01-10T02:35:05;4.43;;;4.20;;
19521;SDS011;9905;52.126;5.596;2024-01-10T02:37:33;5.33;;;4.97;;
19521;SDS011;9905;52.126;5.596;2024-01-10T02:39:59;5.33;;;4.87;;
19521;SDS011;9905;52.126;5.596;2024-01-10T02:42:28;5.33;;;4.90;;
19521;SDS011;9905;52.126;5.596;2024-01-10T02:44:55;4.70;;;4.40;;
19521;SDS011;9905;52.126;5.596;2024-01-10T02:47:22;5.30;;;4.90;;
19521;SDS011;9905;52.126;5.596;2024-01-10T02:49:48;4.70;;;4.40;;
19521;SDS011;9905;52.126;5.596;2024-01-10T02:52:15;5.20;;;4.90;;
19521;SDS011;9905;52.126;5.596;2024-01-10T02:54:42;5.10;;;4.73;;
19521;SDS011;9905;52.126;5.596;2024-01-10T02:57:08;5.37;;;4.90;;
19521;SDS011;9905;52.126;5.596;2024-01-10T02:59:36;5.50;;;5.10;;
19521;SDS011;9905;52.126;5.596;2024-01-10T03:02:03;4.63;;;4.37;;
19521;SDS011;9905;52.126;5.596;2024-01-10T03:04:30;5.47;;;5.10;;
19521;SDS011;9905;52.126;5.596;2024-01-10T03:06:57;6.07;;;5.43;;
19521;SDS011;9905;52.126;5.596;2024-01-10T03:09:23;4.90;;;4.60;;
19521;SDS011;9905;52.126;5.596;2024-01-10T03:11:50;4.93;;;4.63;;
19521;SDS011;9905;52.126;5.596;2024-01-10T03:14:17;4.97;;;4.60;;
19521;SDS011;9905;52.126;5.596;2024-01-10T03:16:45;5.33;;;4.93;;
19521;SDS011;9905;52.126;5.596;2024-01-10T03:19:11;4.83;;;4.60;;
19521;SDS011;9905;52.126;5.596;2024-01-10T03:21:38;5.40;;;5.03;;
19521;SDS011;9905;52.126;5.596;2024-01-10T03:24:05;4.77;;;4.47;;
19521;SDS011;9905;52.126;5.596;2024-01-10T03:26:33;5.23;;;4.77;;
19521;SDS011;9905;52.126;5.596;2024-01-10T03:29:00;5.07;;;4.67;;
19521;SDS011;9905;52.126;5.596;2024-01-10T03:31:27;5.50;;;5.20;;
19521;SDS011;9905;52.126;5.596;2024-01-10T03:33:56;5.67;;;5.23;;
19521;SDS011;9905;52.126;5.596;2024-01-10T03:36:24;5.73;;;5.33;;
19521;SDS011;9905;52.126;5.596;2024-01-10T03:38:51;4.73;;;4.53;;
19521;SDS011;9905;52.126;5.596;2024-01-10T03:41:18;5.10;;;4.80;;
19521;SDS011;9905;52.126;5.596;2024-01-10T03:43:45;5.27;;;4.97;;
19521;SDS011;9905;52.126;5.596;2024-01-10T03:46:13;5.20;;;4.80;;
19521;SDS011;9905;52.126;5.596;2024-01-10T03:48:40;4.70;;;4.50;;
19521;SDS011;9905;52.126;5.596;2024-01-10T03:51:14;4.70;;;4.50;;
19521;SDS011;9905;52.126;5.596;2024-01-10T03:53:41;4.70;;;4.40;;
19521;SDS011;9905;52.126;5.596;2024-01-10T03:56:08;5.33;;;4.93;;
19521;SDS011;9905;52.126;5.596;2024-01-10T03:58:35;4.43;;;4.17;;
19521;SDS011;9905;52.126;5.596;2024-01-10T04:01:03;5.07;;;4.77;;
19521;SDS011;9905;52.126;5.596;2024-01-10T04:03:31;4.53;;;4.33;;
19521;SDS011;9905;52.126;5.596;2024-01-10T04:05:57;4.60;;;4.30;;
19521;SDS011;9905;52.126;5.596;2024-01-10T04:08:25;4.87;;;4.67;;
19521;SDS011;9905;52.126;5.596;2024-01-10T04:10:52;4.70;;;4.40;;
19521;SDS011;9905;52.126;5.596;2024-01-10T04:13:19;5.97;;;5.33;;
19521;SDS011;9905;52.126;5.596;2024-01-10T04:15:46;4.73;;;4.40;;
19521;SDS011;9905;52.126;5.596;2024-01-10T04:18:13;5.20;;;5.00;;
19521;SDS011;9905;52.126;5.596;2024-01-10T04:20:40;5.90;;;5.40;;
19521;SDS011;9905;52.126;5.596;2024-01-10T04:23:09;5.83;;;5.40;;
19521;SDS011;9905;52.126;5.596;2024-01-10T04:25:37;5.43;;;4.93;;
19521;SDS011;9905;52.126;5.596;2024-01-10T04:28:04;6.33;;;5.70;;
19521;SDS011;9905;52.126;5.596;2024-01-10T04:30:31;5.90;;;5.50;;
19521;SDS011;9905;52.126;5.596;2024-01-10T04:32:58;5.63;;;5.20;;
19521;SDS011;9905;52.126;5.596;2024-01-10T04:35:24;5.43;;;5.03;;
19521;SDS011;9905;52.126;5.596;2024-01-10T04:37:51;5.60;;;5.30;;
19521;SDS011;9905;52.126;5.596;2024-01-10T04:40:18;5.10;;;4.70;;
19521;SDS011;9905;52.126;5.596;2024-01-10T04:42:46;5.53;;;5.13;;
19521;SDS011;9905;52.126;5.596;2024-01-10T04:45:12;5.57;;;5.20;;
19521;SDS011;9905;52.126;5.596;2024-01-10T04:47:39;4.90;;;4.53;;
19521;SDS011;9905;52.126;5.596;2024-01-10T04:50:06;5.27;;;4.97;;
19521;SDS011;9905;52.126;5.596;2024-01-10T04:52:34;5.23;;;4.87;;
19521;SDS011;9905;52.126;5.596;2024-01-10T04:55:00;5.37;;;5.07;;
19521;SDS011;9905;52.126;5.596;2024-01-10T04:57:27;4.60;;;4.40;;
19521;SDS011;9905;52.126;5.596;2024-01-10T04:59:56;5.40;;;5.00;;
19521;SDS011;9905;52.126;5.596;2024-01-10T05:02:22;5.23;;;4.93;;
19521;SDS011;9905;52.126;5.596;2024-01-10T05:04:49;5.23;;;4.83;;
19521;SDS011;9905;52.126;5.596;2024-01-10T05:07:16;5.20;;;4.90;;
19521;SDS011;9905;52.126;5.596;2024-01-10T05:09:43;5.47;;;5.07;;
19521;SDS011;9905;52.126;5.596;2024-01-10T05:12:09;4.90;;;4.60;;
19521;SDS011;9905;52.126;5.596;2024-01-10T05:14:36;5.40;;;5.00;;
19521;SDS011;9905;52.126;5.596;2024-01-10T05:17:04;5.07;;;4.77;;
19521;SDS011;9905;52.126;5.596;2024-01-10T05:19:31;5.57;;;5.17;;
19521;SDS011;9905;52.126;5.596;2024-01-10T05:21:58;8.80;;;7.87;;
19521;SDS011;9905;52.126;5.596;2024-01-10T05:24:24;10.80;;;9.03;;
19521;SDS011;9905;52.126;5.596;2024-01-10T05:26:51;10.47;;;8.23;;
19521;SDS011;9905;52.126;5.596;2024-01-10T05:29:18;11.90;;;9.83;;
19521;SDS011;9905;52.126;5.596;2024-01-10T05:31:47;11.33;;;10.23;;
19521;SDS011;9905;52.126;5.596;2024-01-10T05:34:15;7.10;;;6.60;;
19521;SDS011;9905;52.126;5.596;2024-01-10T05:36:42;6.30;;;5.90;;
19521;SDS011;9905;52.126;5.596;2024-01-10T05:39:09;5.27;;;4.97;;
19521;SDS011;9905;52.126;5.596;2024-01-10T05:41:35;5.67;;;5.37;;
19521;SDS011;9905;52.126;5.596;2024-01-10T05:44:04;6.10;;;5.63;;
19521;SDS011;9905;52.126;5.596;2024-01-10T05:46:31;5.20;;;4.90;;
19521;SDS011;9905;52.126;5.596;2024-01-10T05:48:58;5.07;;;4.67;;
19521;SDS011;9905;52.126;5.596;2024-01-10T05:51:26;5.50;;;5.20;;
19521;SDS011;9905;52.126;5.596;2024-01-10T05:53:53;6.70;;;5.00;;
19521;SDS011;9905;52.126;5.596;2024-01-10T05:56:19;5.53;;;5.23;;
19521;SDS011;9905;52.126;5.596;2024-01-10T05:58:46;6.10;;;5.70;;
19521;SDS011;9905;52.126;5.596;2024-01-10T06:01:13;5.77;;;5.37;;
19521;SDS011;9905;52.126;5.596;2024-01-10T06:03:40;6.67;;;6.17;;
19521;SDS011;9905;52.126;5.596;2024-01-10T06:06:06;6.03;;;5.63;;
19521;SDS011;9905;52.126;5.596;2024-01-10T06:08:35;7.13;;;6.57;;
19521;SDS011;9905;52.126;5.596;2024-01-10T06:11:02;7.63;;;6.90;;
19521;SDS011;9905;52.126;5.596;2024-01-10T06:13:31;7.37;;;6.80;;
19521;SDS011;9905;52.126;5.596;2024-01-10T06:15:57;5.63;;;5.23;;
19521;SDS011;9905;52.126;5.596;2024-01-10T06:18:24;6.33;;;5.70;;
19521;SDS011;9905;52.126;5.596;2024-01-10T06:20:51;5.70;;;5.30;;
19521;SDS011;9905;52.126;5.596;2024-01-10T06:23:18;6.30;;;5.90;;
19521;SDS011;9905;52.126;5.596;2024-01-10T06:25:46;5.40;;;5.10;;
19521;SDS011;9905;52.126;5.596;2024-01-10T06:28:12;5.43;;;5.10;;
19521;SDS011;9905;52.126;5.596;2024-01-10T06:30:38;6.43;;;5.63;;
19521;SDS011;9905;52.126;5.596;2024-01-10T06:33:05;5.47;;;5.13;;
19521;SDS011;9905;52.126;5.596;2024-01-10T06:35:32;6.50;;;6.00;;
19521;SDS011;9905;52.126;5.596;2024-01-10T06:37:59;5.57;;;5.27;;
19521;SDS011;9905;52.126;5.596;2024-01-10T06:40:28;6.57;;;5.90;;
19521;SDS011;9905;52.126;5.596;2024-01-10T06:42:57;6.73;;;6.13;;
19521;SDS011;9905;52.126;5.596;2024-01-10T06:45:24;5.57;;;5.27;;
19521;SDS011;9905;52.126;5.596;2024-01-10T06:47:52;6.27;;;5.80;;
19521;SDS011;9905;52.126;5.596;2024-01-10T06:50:19;6.50;;;6.00;;
19521;SDS011;9905;52.126;5.596;2024-01-10T06:52:46;6.20;;;5.83;;
19521;SDS011;9905;52.126;5.596;2024-01-10T06:55:13;5.87;;;5.47;;
19521;SDS011;9905;52.126;5.596;2024-01-10T06:57:40;6.27;;;5.70;;
19521;SDS011;9905;52.126;5.596;2024-01-10T07:00:09;5.83;;;5.30;;
19521;SDS011;9905;52.126;5.596;2024-01-10T07:02:37;6.30;;;5.83;;
19521;SDS011;9905;52.126;5.596;2024-01-10T07:05:06;6.80;;;6.17;;
19521;SDS011;9905;52.126;5.596;2024-01-10T07:07:34;6.67;;;6.17;;
19521;SDS011;9905;52.126;5.596;2024-01-10T07:10:01;6.33;;;5.77;;
19521;SDS011;9905;52.126;5.596;2024-01-10T07:12:29;6.10;;;5.60;;
19521;SDS011;9905;52.126;5.596;2024-01-10T07:14:56;6.93;;;6.43;;
19521;SDS011;9905;52.126;5.596;2024-01-10T07:17:24;6.67;;;6.07;;
19521;SDS011;9905;52.126;5.596;2024-01-10T07:19:51;6.97;;;6.40;;
19521;SDS011;9905;52.126;5.596;2024-01-10T07:22:18;6.30;;;5.80;;
19521;SDS011;9905;52.126;5.596;2024-01-10T07:24:45;7.30;;;6.80;;
19521;SDS011;9905;52.126;5.596;2024-01-10T07:27:12;6.10;;;5.60;;
19521;SDS011;9905;52.126;5.596;2024-01-10T07:29:39;6.60;;;6.03;;
19521;SDS011;9905;52.126;5.596;2024-01-10T07:32:06;6.23;;;5.77;;
19521;SDS011;9905;52.126;5.596;2024-01-10T07:34:37;6.63;;;6.03;;
19521;SDS011;9905;52.126;5.596;2024-01-10T07:37:04;7.87;;;5.07;;
19521;SDS011;9905;52.126;5.596;2024-01-10T07:39:31;7.07;;;5.40;;
19521;SDS011;9905;52.126;5.596;2024-01-10T07:41:58;6.23;;;5.83;;
19521;SDS011;9905;52.126;5.596;2024-01-10T07:44:27;5.27;;;4.87;;
19521;SDS011;9905;52.126;5.596;2024-01-10T07:46:54;6.00;;;5.47;;
19521;SDS011;9905;52.126;5.596;2024-01-10T07:49:20;5.93;;;5.53;;
19521;SDS011;9905;52.126;5.596;2024-01-10T07:51:50;5.93;;;5.43;;
19521;SDS011;9905;52.126;5.596;2024-01-10T07:54:17;6.17;;;5.50;;
19521;SDS011;9905;52.126;5.596;2024-01-10T07:56:43;6.47;;;5.80;;
19521;SDS011;9905;52.126;5.596;2024-01-10T07:59:10;6.17;;;5.70;;
19521;SDS011;9905;52.126;5.596;2024-01-10T08:01:39;7.03;;;5.43;;
19521;SDS011;9905;52.126;5.596;2024-01-10T08:04:06;5.37;;;5.07;;
19521;SDS011;9905;52.126;5.596;2024-01-10T08:06:33;6.10;;;5.73;;
19521;SDS011;9905;52.126;5.596;2024-01-10T08:09:02;5.87;;;5.37;;
19521;SDS011;9905;52.126;5.596;2024-01-10T08:11:29;6.07;;;5.53;;
19521;SDS011;9905;52.126;5.596;2024-01-10T08:13:56;6.93;;;6.00;;
19521;SDS011;9905;52.126;5.596;2024-01-10T08:16:23;5.80;;;5.30;;
19521;SDS011;9905;52.126;5.596;2024-01-10T08:18:49;5.60;;;5.10;;
19521;SDS011;9905;52.126;5.596;2024-01-10T08:21:16;5.90;;;5.33;;
19521;SDS011;9905;52.126;5.596;2024-01-10T08:23:44;6.77;;;6.27;;
19521;SDS011;9905;52.126;5.596;2024-01-10T08:26:12;6.80;;;6.20;;
19521;SDS011;9905;52.126;5.596;2024-01-10T08:28:39;6.10;;;5.73;;
19521;SDS011;9905;52.126;5.596;2024-01-10T08:31:07;6.17;;;5.67;;
19521;SDS011;9905;52.126;5.596;2024-01-10T08:33:33;6.27;;;5.67;;
19521;SDS011;9905;52.126;5.596;2024-01-10T08:36:00;5.50;;;5.07;;
19521;SDS011;9905;52.126;5.596;2024-01-10T08:38:27;5.97;;;5.47;;
19521;SDS011;9905;52.126;5.596;2024-01-10T08:40:53;5.70;;;5.17;;
19521;SDS011;9905;52.126;5.596;2024-01-10T08:43:21;5.60;;;5.27;;
19521;SDS011;9905;52.126;5.596;2024-01-10T08:45:48;7.73;;;5.73;;
19521;SDS011;9905;52.126;5.596;2024-01-10T08:48:15;6.17;;;5.60;;
19521;SDS011;9905;52.126;5.596;2024-01-10T08:50:42;5.20;;;4.80;;
19521;SDS011;9905;52.126;5.596;2024-01-10T08:53:09;6.20;;;5.10;;
19521;SDS011;9905;52.126;5.596;2024-01-10T08:55:36;5.40;;;5.00;;
19521;SDS011;9905;52.126;5.596;2024-01-10T08:58:03;4.77;;;4.47;;
19521;SDS011;9905;52.126;5.596;2024-01-10T09:00:30;6.87;;;5.40;;
19521;SDS011;9905;52.126;5.596;2024-01-10T09:02:57;7.97;;;6.80;;
19521;SDS011;9905;52.126;5.596;2024-01-10T09:05:23;5.93;;;5.43;;
19521;SDS011;9905;52.126;5.596;2024-01-10T09:07:50;6.23;;;5.60;;
19521;SDS011;9905;52.126;5.596;2024-01-10T09:10:18;7.00;;;5.93;;
19521;SDS011;9905;52.126;5.596;2024-01-10T09:12:46;6.00;;;5.57;;
19521;SDS011;9905;52.126;5.596;2024-01-10T09:15:13;5.93;;;5.37;;
19521;SDS011;9905;52.126;5.596;2024-01-10T09:17:42;5.70;;;5.23;;
19521;SDS011;9905;52.126;5.596;2024-01-10T09:20:09;5.33;;;4.90;;
19521;SDS011;9905;52.126;5.596;2024-01-10T09:22:37;6.60;;;6.00;;
19521;SDS011;9905;52.126;5.596;2024-01-10T09:25:04;6.20;;;5.33;;
19521;SDS011;9905;52.126;5.596;2024-01-10T09:27:31;5.57;;;5.07;;
19521;SDS011;9905;52.126;5.596;2024-01-10T09:29:59;6.00;;;5.60;;
19521;SDS011;9905;52.126;5.596;2024-01-10T09:32:26;9.40;;;5.37;;
19521;SDS011;9905;52.126;5.596;2024-01-10T09:34:55;8.07;;;5.77;;
19521;SDS011;9905;52.126;5.596;2024-01-10T09:37:21;6.00;;;5.50;;
19521;SDS011;9905;52.126;5.596;2024-01-10T09:39:48;6.53;;;6.23;;
19521;SDS011;9905;52.126;5.596;2024-01-10T09:42:15;5.80;;;5.40;;
19521;SDS011;9905;52.126;5.596;2024-01-10T09:44:42;6.17;;;5.70;;
19521;SDS011;9905;52.126;5.596;2024-01-10T09:47:09;7.17;;;6.53;;
19521;SDS011;9905;52.126;5.596;2024-01-10T09:49:35;6.77;;;6.17;;
19521;SDS011;9905;52.126;5.596;2024-01-10T09:52:04;5.73;;;5.43;;
19521;SDS011;9905;52.126;5.596;2024-01-10T09:54:37;6.73;;;5.40;;
19521;SDS011;9905;52.126;5.596;2024-01-10T09:57:06;5.80;;;5.33;;
19521;SDS011;9905;52.126;5.596;2024-01-10T09:59:32;6.47;;;5.97;;
19521;SDS011;9905;52.126;5.596;2024-01-10T10:01:59;6.80;;;6.10;;
19521;SDS011;9905;52.126;5.596;2024-01-10T10:04:29;6.17;;;5.60;;
19521;SDS011;9905;52.126;5.596;2024-01-10T10:07:00;7.13;;;6.73;;
19521;SDS011;9905;52.126;5.596;2024-01-10T10:09:28;6.60;;;6.10;;
19521;SDS011;9905;52.126;5.596;2024-01-10T10:11:56;6.53;;;5.93;;
19521;SDS011;9905;52.126;5.596;2024-01-10T10:14:24;6.63;;;6.00;;
19521;SDS011;9905;52.126;5.596;2024-01-10T10:16:54;6.87;;;6.30;;
19521;SDS011;9905;52.126;5.596;2024-01-10T10:19:24;5.80;;;4.87;;
19521;SDS011;9905;52.126;5.596;2024-01-10T10:21:51;6.80;;;6.30;;
19521;SDS011;9905;52.126;5.596;2024-01-10T10:24:17;7.47;;;5.77;;
19521;SDS011;9905;52.126;5.596;2024-01-10T10:26:45;6.50;;;5.90;;
19521;SDS011;9905;52.126;5.596;2024-01-10T10:29:12;6.10;;;5.60;;
19521;SDS011;9905;52.126;5.596;2024-01-10T10:31:43;6.60;;;6.00;;
19521;SDS011;9905;52.126;5.596;2024-01-10T10:34:14;8.63;;;6.57;;
19521;SDS011;9905;52.126;5.596;2024-01-10T10:36:47;9.07;;;7.30;;
19521;SDS011;9905;52.126;5.596;2024-01-10T10:39:15;9.43;;;7.80;;
19521;SDS011;9905;52.126;5.596;2024-01-10T10:41:42;14.57;;;7.73;;
19521;SDS011;9905;52.126;5.596;2024-01-10T10:44:11;9.43;;;6.73;;
19521;SDS011;9905;52.126;5.596;2024-01-10T10:46:41;7.67;;;6.30;;
19521;SDS011;9905;52.126;5.596;2024-01-10T10:49:11;7.23;;;6.60;;
19521;SDS011;9905;52.126;5.596;2024-01-10T10:51:38;8.17;;;6.00;;
19521;SDS011;9905;52.126;5.596;2024-01-10T10:54:06;6.63;;;5.57;;
19521;SDS011;9905;52.126;5.596;2024-01-10T10:56:35;7.67;;;5.80;;
19521;SDS011;9905;52.126;5.596;2024-01-10T10:59:04;7.50;;;6.73;;
19521;SDS011;9905;52.126;5.596;2024-01-10T11:01:34;5.97;;;5.37;;
19521;SDS011;9905;52.126;5.596;2024-01-10T11:04:01;6.90;;;6.40;;
19521;SDS011;9905;52.126;5.596;2024-01-10T11:06:28;7.20;;;6.53;;
19521;SDS011;9905;52.126;5.596;2024-01-10T11:08:56;7.20;;;6.60;;
19521;SDS011;9905;52.126;5.596;2024-01-10T11:11:31;6.60;;;6.07;;
19521;SDS011;9905;52.126;5.596;2024-01-10T11:14:09;5.93;;;5.37;;
19521;SDS011;9905;52.126;5.596;2024-01-10T11:16:52;7.47;;;6.43;;
19521;SDS011;9905;52.126;5.596;2024-01-10T11:22:41;6.53;;;5.90;;
19521;SDS011;9905;52.126;5.596;2024-01-10T11:25:19;8.70;;;6.27;;
19521;SDS011;9905;52.126;5.596;2024-01-10T11:27:46;6.83;;;6.27;;
19521;SDS011;9905;52.126;5.596;2024-01-10T11:30:29;6.97;;;6.37;;
19521;SDS011;9905;52.126;5.596;2024-01-10T11:33:01;8.00;;;7.27;;
19521;SDS011;9905;52.126;5.596;2024-01-10T11:35:44;8.50;;;6.27;;
19521;SDS011;9905;52.126;5.596;2024-01-10T11:38:42;7.30;;;6.10;;
19521;SDS011;9905;52.126;5.596;2024-01-10T11:41:15;7.00;;;6.40;;
19521;SDS011;9905;52.126;5.596;2024-01-10T11:43:56;7.27;;;6.57;;
19521;SDS011;9905;52.126;5.596;2024-01-10T11:46:52;7.03;;;6.33;;
19521;SDS011;9905;52.126;5.596;2024-01-10T11:49:22;7.27;;;6.60;;
19521;SDS011;9905;52.126;5.596;2024-01-10T11:51:50;7.37;;;6.03;;
19521;SDS011;9905;52.126;5.596;2024-01-10T11:57:19;6.97;;;6.33;;
19521;SDS011;9905;52.126;5.596;2024-01-10T11:59:47;7.07;;;6.37;;
19521;SDS011;9905;52.126;5.596;2024-01-10T12:02:17;8.03;;;7.30;;
19521;SDS011;9905;52.126;5.596;2024-01-10T12:04:46;7.00;;;6.27;;
19521;SDS011;9905;52.126;5.596;2024-01-10T12:07:13;6.67;;;6.17;;
19521;SDS011;9905;52.126;5.596;2024-01-10T12:09:40;7.07;;;6.47;;
19521;SDS011;9905;52.126;5.596;2024-01-10T12:12:08;7.10;;;6.07;;
19521;SDS011;9905;52.126;5.596;2024-01-10T12:14:35;11.33;;;6.47;;
19521;SDS011;9905;52.126;5.596;2024-01-10T12:17:02;6.60;;;5.97;;
19521;SDS011;9905;52.126;5.596;2024-01-10T12:19:31;6.33;;;5.80;;
19521;SDS011;9905;52.126;5.596;2024-01-10T12:22:01;7.23;;;6.53;;
19521;SDS011;9905;52.126;5.596;2024-01-10T12:24:28;7.50;;;6.03;;
19521;SDS011;9905;52.126;5.596;2024-01-10T12:26:56;8.70;;;6.27;;
19521;SDS011;9905;52.126;5.596;2024-01-10T12:29:23;6.57;;;5.90;;
19521;SDS011;9905;52.126;5.596;2024-01-10T12:31:50;6.77;;;6.17;;
19521;SDS011;9905;52.126;5.596;2024-01-10T12:34:17;6.40;;;5.80;;
19521;SDS011;9905;52.126;5.596;2024-01-10T12:36:43;7.00;;;6.30;;
19521;SDS011;9905;52.126;5.596;2024-01-10T12:39:13;7.13;;;6.53;;
19521;SDS011;9905;52.126;5.596;2024-01-10T12:41:40;7.43;;;6.60;;
19521;SDS011;9905;52.126;5.596;2024-01-10T12:44:08;6.53;;;5.93;;
19521;SDS011;9905;52.126;5.596;2024-01-10T12:46:48;9.10;;;6.07;;
19521;SDS011;9905;52.126;5.596;2024-01-10T12:49:16;7.07;;;6.10;;
19521;SDS011;9905;52.126;5.596;2024-01-10T12:51:43;7.13;;;6.50;;
19521;SDS011;9905;52.126;5.596;2024-01-10T12:54:10;6.93;;;6.27;;
19521;SDS011;9905;52.126;5.596;2024-01-10T12:56:38;5.70;;;5.20;;
19521;SDS011;9905;52.126;5.596;2024-01-10T12:59:04;6.57;;;5.97;;
19521;SDS011;9905;52.126;5.596;2024-01-10T13:01:34;7.57;;;6.37;;
19521;SDS011;9905;52.126;5.596;2024-01-10T13:04:01;6.13;;;5.63;;
19521;SDS011;9905;52.126;5.596;2024-01-10T13:06:28;6.63;;;5.87;;
19521;SDS011;9905;52.126;5.596;2024-01-10T13:08:56;6.70;;;6.10;;
19521;SDS011;9905;52.126;5.596;2024-01-10T13:11:23;7.17;;;6.60;;
19521;SDS011;9905;52.126;5.596;2024-01-10T13:13:51;7.03;;;6.37;;
19521;SDS011;9905;52.126;5.596;2024-01-10T13:16:18;7.33;;;6.67;;
19521;SDS011;9905;52.126;5.596;2024-01-10T13:18:45;6.07;;;5.53;;
19521;SDS011;9905;52.126;5.596;2024-01-10T13:21:11;7.43;;;5.63;;
19521;SDS011;9905;52.126;5.596;2024-01-10T13:23:38;6.97;;;6.47;;
19521;SDS011;9905;52.126;5.596;2024-01-10T13:26:05;8.43;;;6.70;;
19521;SDS011;9905;52.126;5.596;2024-01-10T13:28:32;7.63;;;6.23;;
19521;SDS011;9905;52.126;5.596;2024-01-10T13:31:00;6.33;;;5.80;;
19521;SDS011;9905;52.126;5.596;2024-01-10T13:33:28;6.17;;;5.73;;
19521;SDS011;9905;52.126;5.596;2024-01-10T13:35:55;6.73;;;5.80;;
19521;SDS011;9905;52.126;5.596;2024-01-10T13:38:22;5.97;;;5.47;;
19521;SDS011;9905;52.126;5.596;2024-01-10T13:40:51;7.13;;;5.90;;
19521;SDS011;9905;52.126;5.596;2024-01-10T13:43:18;5.80;;;5.30;;
19521;SDS011;9905;52.126;5.596;2024-01-10T13:45:44;6.30;;;5.70;;
19521;SDS011;9905;52.126;5.596;2024-01-10T13:48:13;7.17;;;5.90;;
19521;SDS011;9905;52.126;5.596;2024-01-10T13:50:39;6.90;;;6.00;;
19521;SDS011;9905;52.126;5.596;2024-01-10T13:53:06;6.17;;;5.57;;
19521;SDS011;9905;52.126;5.596;2024-01-10T13:55:33;6.37;;;5.87;;
19521;SDS011;9905;52.126;5.596;2024-01-10T13:58:00;6.32;;;5.28;;
19521;SDS011;9905;52.126;5.596;2024-01-10T14:00:28;6.47;;;5.87;;
19521;SDS011;9905;52.126;5.596;2024-01-10T14:02:55;6.40;;;5.90;;
19521;SDS011;9905;52.126;5.596;2024-01-10T14:05:26;5.97;;;5.47;;
19521;SDS011;9905;52.126;5.596;2024-01-10T14:07:53;6.03;;;5.43;;
19521;SDS011;9905;52.126;5.596;2024-01-10T14:10:20;7.10;;;6.37;;
19521;SDS011;9905;52.126;5.596;2024-01-10T14:12:47;5.83;;;5.43;;
19521;SDS011;9905;52.126;5.596;2024-01-10T14:15:14;6.27;;;5.77;;
19521;SDS011;9905;52.126;5.596;2024-01-10T14:17:41;5.90;;;5.40;;
19521;SDS011;9905;52.126;5.596;2024-01-10T14:20:08;6.17;;;5.60;;
19521;SDS011;9905;52.126;5.596;2024-01-10T14:22:37;7.13;;;6.53;;
19521;SDS011;9905;52.126;5.596;2024-01-10T14:25:04;7.53;;;6.73;;
19521;SDS011;9905;52.126;5.596;2024-01-10T14:27:31;6.00;;;5.50;;
19521;SDS011;9905;52.126;5.596;2024-01-10T14:29:58;6.07;;;5.63;;
19521;SDS011;9905;52.126;5.596;2024-01-10T14:32:28;6.40;;;6.00;;
19521;SDS011;9905;52.126;5.596;2024-01-10T14:34:55;7.00;;;5.47;;
19521;SDS011;9905;52.126;5.596;2024-01-10T14:37:22;7.15;;;5.97;;
19521;SDS011;9905;52.126;5.596;2024-01-10T14:39:50;6.10;;;5.67;;
19521;SDS011;9905;52.126;5.596;2024-01-10T14:42:17;7.50;;;6.87;;
19521;SDS011;9905;52.126;5.596;2024-01-10T14:44:43;7.57;;;6.17;;
19521;SDS011;9905;52.126;5.596;2024-01-10T14:47:11;7.37;;;6.77;;
19521;SDS011;9905;52.126;5.596;2024-01-10T14:49:37;6.33;;;5.47;;
19521;SDS011;9905;52.126;5.596;2024-01-10T14:52:04;7.60;;;6.90;;
19521;SDS011;9905;52.126;5.596;2024-01-10T14:54:31;6.97;;;6.37;;
19521;SDS011;9905;52.126;5.596;2024-01-10T14:57:00;6.77;;;6.03;;
19521;SDS011;9905;52.126;5.596;2024-01-10T14:59:28;7.80;;;7.07;;
19521;SDS011;9905;52.126;5.596;2024-01-10T15:01:55;8.90;;;6.77;;
19521;SDS011;9905;52.126;5.596;2024-01-10T15:04:22;6.60;;;6.00;;
19521;SDS011;9905;52.126;5.596;2024-01-10T15:06:48;6.73;;;6.10;;
19521;SDS011;9905;52.126;5.596;2024-01-10T15:09:15;7.20;;;6.60;;